Airfield :
LOGIN :

Register | Disclaimer

   EN    FR    IT 

 










Legend :    VFR   Marginal VFR   IFR   Intensive IFR   Very Intensive IFR
Visi :
Ceiling :
>= 8 km
>= 3000ft
5 to 8 km
1000 to 3000 ft
1500m to 5 km
500 to 1000 ft
800 to 1500m
200 to 500 ft
< 800m
< 200 ft
Symbols :   Thunderstorms  Fog  Heavy snow  Heavy precipitations  Wind > 20 kt
SIGMETs :     Misc.  Thunderstorms  Icing  Turbulence  Mountain Waves  Volcanic Ashes







- Airport Elevation : 53 ft
- IATA code : HAM


EDDH - Hamburg

CURRENT METAR :
  • 171420Z VRB03KT CAVOK 25/10 Q1020 NOSIG

EXPIRED METARs :
  • 171350Z VRB03KT CAVOK 25/12 Q1020 NOSIG
  • 171320Z 10005KT 040V170 CAVOK 25/11 Q1020 NOSIG
  • 171250Z 17004KT 080V240 CAVOK 24/10 Q1021 NOSIG
  • 171220Z VRB04KT CAVOK 24/11 Q1021 NOSIG
  • 171150Z VRB02KT CAVOK 24/12 Q1021 NOSIG

TAF TAF EDDH
Valid from the 17 at 12:00 until the 18 at 18:00 UTC


171100Z 1712/1818 19004KT CAVOK
BECMG 1713/1715 13005KT
BECMG 1811/1813 21006KT
BECMG 1815/1817 VRB03KT
No reported NOTAMs for that airfield.



MET'MAP, your aeronautical weather chart ! - Copyright ORBIFLY December 2007 - Disclaimer

ORBIFLY MET'MAP TEAM :

Programming & Development : Alexandra Zaïnal
Concept & Development : Baudouin d'Aumeries
Co-Development & Prog : Marc-Olivier Méhu
Technical & hardware support : Manuel Goepfert

Contact : metmap@orbifly.com




SOURCES & CREDITS :

   NOAA